createdAt,value
2022-10-02T00:00:16.862Z,13.50
2022-10-02T00:04:26.062Z,13.50
2022-10-02T00:09:00.117Z,13.50
2022-10-02T00:13:05.831Z,13.50
2022-10-02T00:17:16.781Z,13.50
2022-10-02T00:21:34.743Z,13.60
2022-10-02T00:25:43.446Z,13.60
2022-10-02T00:30:16.336Z,13.60
2022-10-02T00:34:29.943Z,13.70
2022-10-02T00:38:45.891Z,13.70
2022-10-02T00:43:04.675Z,13.70
2022-10-02T00:47:16.794Z,13.70
2022-10-02T00:51:34.708Z,13.70
2022-10-02T00:55:55.977Z,13.70
2022-10-02T01:00:19.269Z,13.70
2022-10-02T01:04:52.806Z,13.70
2022-10-02T01:09:29.634Z,13.70
2022-10-02T01:13:35.007Z,13.70
2022-10-02T01:18:08.732Z,13.70
2022-10-02T01:22:19.370Z,13.70
2022-10-02T01:26:48.522Z,13.80
2022-10-02T01:30:56.005Z,13.80
2022-10-02T01:35:27.976Z,13.80
2022-10-02T01:39:32.950Z,13.80
2022-10-02T01:44:08.315Z,13.80
2022-10-02T01:48:17.732Z,13.90
2022-10-02T01:52:39.494Z,13.80
2022-10-02T01:56:59.152Z,13.80
2022-10-02T02:01:39.588Z,13.70
2022-10-02T02:05:50.818Z,13.70
2022-10-02T02:10:21.552Z,13.70
2022-10-02T02:14:29.268Z,13.70
2022-10-02T02:19:05.684Z,13.70
2022-10-02T02:23:18.506Z,13.70
2022-10-02T02:27:26.657Z,13.70
2022-10-02T02:31:37.365Z,13.60
2022-10-02T02:36:09.023Z,13.50
2022-10-02T02:40:21.213Z,13.40
2022-10-02T02:44:51.912Z,13.40
2022-10-02T02:49:00.966Z,13.30
2022-10-02T02:53:35.949Z,13.30
2022-10-02T02:57:44.814Z,13.30
2022-10-02T03:02:15.869Z,13.20
2022-10-02T03:06:32.054Z,13.20
2022-10-02T03:11:06.414Z,13.20
2022-10-02T03:15:41.670Z,13.20
2022-10-02T03:19:49.309Z,13.30
2022-10-02T03:24:02.734Z,13.20
2022-10-02T03:28:54.274Z,13.20
2022-10-02T03:33:01.129Z,13.20
2022-10-02T03:37:32.645Z,13.20
2022-10-02T03:42:09.274Z,13.20
2022-10-02T03:46:13.779Z,13.20
2022-10-02T03:50:17.193Z,13.20
2022-10-02T03:54:55.586Z,13.20
2022-10-02T03:59:34.733Z,13.10
2022-10-02T04:03:46.914Z,13.10
2022-10-02T04:08:20.499Z,13.10
2022-10-02T04:12:53.289Z,13.10
2022-10-02T04:17:07.503Z,13.10
2022-10-02T04:21:42.199Z,13.10
2022-10-02T04:26:14.899Z,13.10
2022-10-02T04:30:20.071Z,13.10
2022-10-02T04:34:23.229Z,13.10
2022-10-02T04:39:13.541Z,13.00
2022-10-02T04:43:25.095Z,13.00
2022-10-02T04:48:12.118Z,12.90
2022-10-02T04:52:28.199Z,12.90
2022-10-02T04:56:52.973Z,12.90
2022-10-02T05:01:04.907Z,12.80
2022-10-02T05:05:21.947Z,12.80
2022-10-02T05:09:50.366Z,12.80
2022-10-02T05:14:12.617Z,12.80
2022-10-02T05:18:39.213Z,12.90
2022-10-02T05:23:12.967Z,12.90
2022-10-02T05:27:51.510Z,13.00
2022-10-02T05:32:33.833Z,13.00
2022-10-02T05:37:04.580Z,13.00
2022-10-02T05:41:15.797Z,13.10
2022-10-02T05:45:51.376Z,13.10
2022-10-02T05:50:27.490Z,13.20
2022-10-02T05:55:05.110Z,13.20
2022-10-02T05:59:35.701Z,13.20
2022-10-02T06:04:15.022Z,13.20
2022-10-02T06:08:52.825Z,13.20
2022-10-02T06:13:00.020Z,13.30
2022-10-02T06:17:32.809Z,13.30
2022-10-02T06:22:09.304Z,13.30
2022-10-02T06:31:44.140Z,13.40
2022-10-02T06:36:23.420Z,13.50
2022-10-02T06:40:54.490Z,13.50
2022-10-02T06:45:33.625Z,13.50
2022-10-02T06:49:50.255Z,13.50
2022-10-02T06:54:26.550Z,13.60
2022-10-02T06:58:59.148Z,13.70
2022-10-02T07:03:31.571Z,13.70
2022-10-02T07:08:03.386Z,13.80
2022-10-02T07:12:41.609Z,13.80
2022-10-02T07:16:58.306Z,13.80
2022-10-02T07:21:35.179Z,13.90
2022-10-02T07:25:58.233Z,14.00
2022-10-02T07:30:19.023Z,14.20
2022-10-02T07:34:57.598Z,14.20
2022-10-02T07:39:34.294Z,14.20
2022-10-02T07:43:49.664Z,14.30
2022-10-02T07:48:09.316Z,14.30
2022-10-02T07:52:40.798Z,14.30
2022-10-02T07:57:20.800Z,14.30
2022-10-02T08:01:46.083Z,14.40
2022-10-02T08:06:17.849Z,14.50
2022-10-02T08:10:54.306Z,14.40
2022-10-02T08:15:34.634Z,14.40
2022-10-02T08:19:44.154Z,14.70
2022-10-02T08:23:53.962Z,14.80
2022-10-02T08:28:02.887Z,14.80
2022-10-02T08:32:11.550Z,14.80
2022-10-02T08:36:48.514Z,14.80
2022-10-02T08:41:33.990Z,14.80
2022-10-02T08:46:25.883Z,14.90
2022-10-02T08:50:54.813Z,15.10
2022-10-02T08:55:27.460Z,15.20
2022-10-02T09:00:19.283Z,15.20
2022-10-02T09:05:01.214Z,15.30
2022-10-02T09:09:51.684Z,15.20
2022-10-02T09:19:41.910Z,15.00
2022-10-02T09:24:23.301Z,15.10
2022-10-02T09:29:15.849Z,15.20
2022-10-02T09:33:56.125Z,15.20
2022-10-02T09:38:39.218Z,15.20
2022-10-02T09:43:24.613Z,15.10
2022-10-02T09:53:35.474Z,15.20
2022-10-02T10:03:30.461Z,15.20
2022-10-02T10:08:04.431Z,15.20
2022-10-02T10:12:56.690Z,15.20
2022-10-02T10:17:45.640Z,15.30
2022-10-02T10:33:52.229Z,15.30
2022-10-02T10:38:39.786Z,15.20
2022-10-02T10:43:19.632Z,15.20
2022-10-02T10:48:06.615Z,15.40
2022-10-02T10:52:34.390Z,15.50
2022-10-02T10:57:00.775Z,15.60
2022-10-02T11:01:38.333Z,15.80
2022-10-02T11:06:20.241Z,15.90
2022-10-02T11:10:53.277Z,15.70
2022-10-02T11:15:38.630Z,15.70
2022-10-02T11:20:02.790Z,15.50
2022-10-02T11:24:35.829Z,15.50
2022-10-02T11:29:23.826Z,15.30
2022-10-02T11:34:03.922Z,15.20
2022-10-02T11:38:38.638Z,15.30
2022-10-02T11:43:18.987Z,15.30
2022-10-02T11:47:55.156Z,15.20
2022-10-02T11:52:36.450Z,15.10
2022-10-02T11:57:06.125Z,15.10
2022-10-02T12:01:37.190Z,15.00
2022-10-02T12:06:15.597Z,15.00
2022-10-02T12:10:48.686Z,15.00
2022-10-02T12:15:25.255Z,15.00
2022-10-02T12:20:19.422Z,14.90
2022-10-02T12:25:00.784Z,14.80
2022-10-02T12:29:12.856Z,14.60
2022-10-02T12:33:47.218Z,14.60
2022-10-02T12:38:17.944Z,14.50
2022-10-02T12:43:10.537Z,14.40
2022-10-02T12:47:54.579Z,14.20
2022-10-02T12:52:43.745Z,14.10
2022-10-02T13:03:00.221Z,13.90
2022-10-02T13:07:41.625Z,13.90
2022-10-02T13:12:23.361Z,14.00
2022-10-02T13:17:09.982Z,14.10
2022-10-02T13:21:39.884Z,14.20
2022-10-02T13:26:17.224Z,14.20
2022-10-02T13:36:20.146Z,14.10
2022-10-02T13:40:31.160Z,14.20
2022-10-02T13:45:03.802Z,14.20
2022-10-02T13:49:46.602Z,14.10
2022-10-02T13:54:36.843Z,14.00
2022-10-02T14:04:37.904Z,13.80
2022-10-02T14:09:20.606Z,13.80
2022-10-02T14:14:03.340Z,13.80
2022-10-02T14:18:43.488Z,13.80
2022-10-02T14:23:13.009Z,13.90
2022-10-02T14:27:56.616Z,13.90
2022-10-02T14:32:34.770Z,14.00
2022-10-02T14:37:03.121Z,14.10
2022-10-02T14:41:49.327Z,14.20
2022-10-02T14:46:22.503Z,14.20
2022-10-02T14:50:53.034Z,14.20
2022-10-02T14:55:34.639Z,14.30
2022-10-02T15:00:27.071Z,14.30
2022-10-02T15:04:48.259Z,14.30
2022-10-02T15:09:11.596Z,14.20
2022-10-02T15:13:49.047Z,14.20
2022-10-02T15:18:25.115Z,14.20
2022-10-02T15:22:59.086Z,14.10
2022-10-02T15:27:39.634Z,14.00
2022-10-02T15:32:10.699Z,14.00
2022-10-02T15:36:54.238Z,13.90
2022-10-02T15:41:32.178Z,13.80
2022-10-02T15:46:05.533Z,13.80
2022-10-02T15:50:36.799Z,13.70
2022-10-02T15:55:09.241Z,13.70
2022-10-02T15:59:44.339Z,13.70
2022-10-02T16:04:14.641Z,13.60
2022-10-02T16:08:45.238Z,13.60
2022-10-02T16:13:27.105Z,13.50
2022-10-02T16:18:07.259Z,13.50
2022-10-02T16:22:53.713Z,13.50
2022-10-02T16:27:26.503Z,13.40
2022-10-02T16:32:04.762Z,13.40
2022-10-02T16:36:41.472Z,13.40
2022-10-02T16:41:18.672Z,13.40
2022-10-02T16:45:59.724Z,13.40
2022-10-02T16:50:27.646Z,13.30
2022-10-02T16:55:05.525Z,13.30
2022-10-02T16:59:44.178Z,13.30
2022-10-02T17:04:29.868Z,13.20
2022-10-02T17:08:40.483Z,13.20
2022-10-02T17:13:16.259Z,13.20
2022-10-02T17:17:56.217Z,13.30
2022-10-02T17:22:28.846Z,13.20
2022-10-02T17:27:08.192Z,13.20
2022-10-02T17:31:41.418Z,13.20
2022-10-02T17:36:18.905Z,13.20
2022-10-02T17:40:52.698Z,13.20
2022-10-02T17:45:33.201Z,13.20
2022-10-02T17:50:22.232Z,13.20
2022-10-02T17:55:13.045Z,13.20
2022-10-02T18:00:00.243Z,13.20
2022-10-02T18:04:38.241Z,13.30
2022-10-02T18:09:12.023Z,13.30
2022-10-02T18:13:49.422Z,13.30
2022-10-02T18:18:21.364Z,13.40
2022-10-02T18:23:00.035Z,13.40
2022-10-02T18:27:37.868Z,13.50
2022-10-02T18:32:15.541Z,13.50
2022-10-02T18:36:56.297Z,13.50
2022-10-02T18:41:33.276Z,13.50
2022-10-02T18:46:08.145Z,13.50
2022-10-02T18:50:51.867Z,13.50
2022-10-02T18:55:25.409Z,13.50
2022-10-02T18:59:55.348Z,13.50
2022-10-02T19:04:33.595Z,13.40
2022-10-02T19:09:19.194Z,13.30
2022-10-02T19:13:40.696Z,13.30
2022-10-02T19:18:19.336Z,13.20
2022-10-02T19:22:51.372Z,13.20
2022-10-02T19:27:26.271Z,13.10
2022-10-02T19:32:10.330Z,13.10
2022-10-02T19:36:38.456Z,13.20
2022-10-02T19:41:16.135Z,13.20
2022-10-02T19:45:42.423Z,13.20
2022-10-02T19:50:23.406Z,13.30
2022-10-02T19:54:51.105Z,13.30
2022-10-02T19:59:27.718Z,13.30
2022-10-02T20:08:53.114Z,13.20
2022-10-02T20:13:24.487Z,13.20
2022-10-02T20:17:58.554Z,13.20
2022-10-02T20:22:06.350Z,13.20
2022-10-02T20:26:14.964Z,13.10
2022-10-02T20:30:20.464Z,13.00
2022-10-02T20:34:28.865Z,12.90
2022-10-02T20:38:37.895Z,12.80
2022-10-02T20:43:14.289Z,12.70
2022-10-02T20:48:10.627Z,12.60
2022-10-02T20:52:55.077Z,12.50
2022-10-02T20:58:00.025Z,12.60
2022-10-02T21:02:21.566Z,12.60
2022-10-02T21:07:06.737Z,12.60
2022-10-02T21:11:20.264Z,12.50
2022-10-02T21:16:01.343Z,12.40
2022-10-02T21:20:50.900Z,12.30
2022-10-02T21:25:24.605Z,12.20
2022-10-02T21:30:22.659Z,12.20
2022-10-02T21:34:41.693Z,12.20
2022-10-02T21:39:34.852Z,12.20
2022-10-02T21:44:24.714Z,12.30
2022-10-02T21:49:07.157Z,12.30
2022-10-02T21:53:51.220Z,12.20
2022-10-02T21:58:21.015Z,12.10
2022-10-02T22:02:39.062Z,12.10
2022-10-02T22:06:51.282Z,12.20
2022-10-02T22:11:06.814Z,12.20
2022-10-02T22:15:19.294Z,12.20
2022-10-02T22:19:59.162Z,12.00
2022-10-02T22:24:34.660Z,11.80
2022-10-02T22:28:44.982Z,11.80
2022-10-02T22:33:14.015Z,11.80
2022-10-02T22:37:44.396Z,11.60
2022-10-02T22:41:56.062Z,11.60
2022-10-02T22:46:29.790Z,11.50
2022-10-02T22:50:39.106Z,11.50
2022-10-02T22:55:10.830Z,11.40
2022-10-02T22:59:19.318Z,11.40
2022-10-02T23:03:31.481Z,11.30
2022-10-02T23:08:03.382Z,11.20
2022-10-02T23:12:12.586Z,11.20
2022-10-02T23:16:24.365Z,11.20
2022-10-02T23:20:54.883Z,11.20
2022-10-02T23:25:06.224Z,11.20
2022-10-02T23:29:29.614Z,11.10
2022-10-02T23:33:44.210Z,11.00
2022-10-02T23:37:54.827Z,10.90
2022-10-02T23:42:00.481Z,10.80
2022-10-02T23:46:08.091Z,10.70
2022-10-02T23:50:22.814Z,10.70
2022-10-02T23:54:54.002Z,10.70
2022-10-02T23:59:12.757Z,10.60
